Terminal Aerodrome Forecast
Issued by NWS

Home | Current Version | Previous Version | Graphics & Text | Print | Product List | Glossary On
Versions: 1 2 3 4 5 6 7 8 9 10 11 12 13 14 15 16 17 18 19 20 21 22 23 24 25 26 27 28 29 30
071
FTUS45 KGGW 222320
TAFOLF
TAF
KOLF 222320Z 2300/2324 VRB06KT 6SM BR BKN018
     FM230500 VRB04KT 6SM BR OVC010
     FM231100 VRB04KT 6SM BR OVC008=

USA.gov is the U.S. government's official web portal to all federal, state and local government web resources and services.